NY/NJ Local METAR Reports

No Warnings, Watches, or Advisories
KNYC - NYC/Central Park, NY, USA
Distance from station: NE 4mi, 7km
Updated: 02/25/2021 7:51am
Clear
Clear
 Wind from WNW
Wind: WNW 12 mph , 19 km/h, Gust: 21 mph , 33 km/h
Temperature: 39°F , 4°C
Wind Chill: 32°F , 0°C
Dew Point: 19°F , -7°C
Humidity: 45%
Barometer: 30.06 inHg , 1017.9 hPa
Clouds: Clear
Visibility: 10 miles , 16 km
2021/02/25 12:51 KNYC 251251Z AUTO 30010G18KT 280V010 10SM CLR 04/M07 A3006 RMK AO2 SLP171 T00441067 $
KEWR - Newark, NJ, USA
Distance from station: WSW 8mi, 13km
Updated: 02/25/2021 7:51am
Clear
Clear
 Wind from NW
Wind: NW 20 mph , 31 km/h, Gust: 31 mph , 50 km/h
Temperature: 41°F , 5°C
Wind Chill: 32°F , 0°C
Dew Point: 19°F , -7°C
Humidity: 42%
Barometer: 30.05 inHg , 1017.6 hPa
Clouds: Clear
Visibility: 10 miles , 16 km
2021/02/25 12:51 KEWR 251251Z 31017G27KT 10SM CLR 05/M07 A3005 RMK AO2 PK WND 30027/1229 SLP174 T00501067
 
KLGA - NYC/La Guardia, NY, USA
Distance from station: ENE 8mi, 13km
Updated: 02/25/2021 7:51am
Few Clouds
Few Clouds
 Wind from NNW
Wind: NNW 21 mph , 33 km/h, Gust: 32 mph , 52 km/h
Temperature: 41°F , 5°C
Wind Chill: 32°F , 0°C
Dew Point: 19°F , -7°C
Humidity: 42%
Barometer: 30.04 inHg , 1017.3 hPa
Clouds: Few Clouds
Visibility: 10 miles , 16 km
Cloud details: Few Clouds 25000 ft
2021/02/25 12:51 KLGA 251251Z 33018G28KT 10SM FEW250 05/M07 A3004 RMK AO2 PK WND 32029/1201 SLP171 T00501072
KTEB - Teterboro, NJ, USA
Distance from station: N 9mi, 14km
Updated: 02/25/2021 7:51am
Clear
Clear
 Wind from NW
Wind: NW 16 mph , 26 km/h, Gust: 25 mph , 41 km/h
Temperature: 39°F , 4°C
Wind Chill: 30°F , -1°C
Dew Point: 21°F , -6°C
Humidity: 48%
Barometer: 30.04 inHg , 1017.3 hPa
Clouds: Clear
Visibility: 10 miles , 16 km
2021/02/25 12:51 KTEB 251251Z 32014G22KT 10SM CLR 04/M06 A3004 RMK AO2 SLP173 T00441061
 
KJFK - NYC/Jfk Arpt, NY, USA
Distance from station: ESE 16mi, 25km
Updated: 02/25/2021 7:51am
Few Clouds
Few Clouds
 Wind from NW
Wind: NW 28 mph , 44 km/h, Gust: 36 mph , 57 km/h
Temperature: 41°F , 5°C
Wind Chill: 30°F , -1°C
Dew Point: 21°F , -6°C
Humidity: 45%
Barometer: 30.04 inHg , 1017.3 hPa
Clouds: Few Clouds
Visibility: 10 miles , 16 km
Cloud details: Few Clouds 4500 ft
Few Clouds 7000 ft
Few Clouds 25000 ft
2021/02/25 12:51 KJFK 251251Z 32024G31KT 10SM FEW045 FEW070 FEW250 05/M06 A3004 RMK AO2 PK WND 33034/1205 SLP170 T00501061
KCDW - Caldwell, NJ, USA
Distance from station: NW 16mi, 26km
Updated: 02/25/2021 7:53am
Clear
Clear
 Wind from NNW
Wind: NNW 9 mph , 15 km/h, Gust: 24 mph , 39 km/h
Temperature: 41°F , 5°C
Wind Chill: 35°F , 2°C
Dew Point: 19°F , -7°C
Humidity: 42%
Barometer: 30.06 inHg , 1017.9 hPa
Clouds: Clear
Visibility: 10 miles , 16 km
2021/02/25 12:53 KCDW 251253Z 33008G21KT 10SM CLR 05/M07 A3006 RMK AO2 SLP186 T00501072
 
KMMU - Morristown Muni, NJ, USA
Distance from station: W 20mi, 33km
Updated: 02/25/2021 8:00am
Clear
Clear
 Wind from NNW
Wind: NNW 12 mph , 19 km/h, Gust: 21 mph , 33 km/h
Temperature: 39°F , 4°C
Wind Chill: 32°F , 0°C
Dew Point: 21°F , -6°C
Humidity: 48%
Barometer: 30.06 inHg , 1017.9 hPa
Clouds: Clear
Visibility: 10 miles , 16 km
2021/02/25 13:00 KMMU 251300Z 33010G18KT 10SM SKC 04/M06 A3006
KHPN - White Plains, NY, USA
Distance from station: NE 28mi, 46km
Updated: 02/25/2021 7:56am
Clear
Clear
 Wind from NW
Wind: NW 15 mph , 24 km/h, Gust: 28 mph , 44 km/h
Temperature: 37°F , 3°C
Wind Chill: 28°F , -2°C
Dew Point: 21°F , -6°C
Humidity: 52%
Barometer: 30.00 inHg , 1015.9 hPa
Clouds: Clear
Visibility: 10 miles , 16 km
2021/02/25 12:56 KHPN 251256Z 31013G24KT 10SM CLR 03/M06 A3000 RMK AO2 PK WND 32026/1231 SLP165 T00331061 $
 
KFRG - Farmingdale, NY, USA
Distance from station: E 32mi, 52km
Updated: 02/25/2021 7:53am
Clear
Clear
 Wind from NNW
Wind: NNW 16 mph , 26 km/h, Gust: 26 mph , 43 km/h
Temperature: 43°F , 6°C
Wind Chill: 35°F , 2°C
Dew Point: 21°F , -6°C
Humidity: 42%
Barometer: 30.01 inHg , 1016.3 hPa
Clouds: Clear
Visibility: 10 miles , 16 km
2021/02/25 12:53 KFRG 251253Z AUTO 33014G23KT 10SM CLR 06/M06 A3001 RMK AO2 SLP164 T00561056
KSMQ - Somerville, NJ, USA
Distance from station: WSW 34mi, 55km
Updated: 02/25/2021 7:53am
Clear
Clear
 Wind from NNW
Wind: NNW 9 mph , 15 km/h
Temperature: 41°F , 5°C
Wind Chill: 35°F , 2°C
Dew Point: 21°F , -6°C
Humidity: 45%
Barometer: 30.06 inHg , 1017.9 hPa
Clouds: Clear
2021/02/25 12:53 KSMQ 251253Z AUTO 33008KT CLR 05/M06 A3006 RMK AO2 SLP181 T00501056 $
 
KBLM - Belmar/Farmdale, NJ, USA
Distance from station: S 40mi, 64km
Updated: 02/25/2021 7:56am
Clear
Clear
 Wind from NW
Wind: NW 22 mph , 35 km/h, Gust: 26 mph , 43 km/h
Temperature: 43°F , 6°C
Wind Chill: 34°F , 1°C
Dew Point: 25°F , -4°C
Humidity: 49%
Barometer: 30.05 inHg , 1017.6 hPa
Clouds: Clear
Visibility: 10 miles , 16 km
2021/02/25 12:56 KBLM 251256Z AUTO 31019G23KT 10SM CLR 06/M04 A3005 RMK AO2 PK WND 32027/1241 SLP178 T00561044
K12N - Andover, NJ, USA
Distance from station: WNW 41mi, 67km
Updated: 02/25/2021 7:54am

 Wind from N
Wind: N 7 mph , 11 km/h, Gust: 16 mph , 26 km/h
Temperature: 37°F , 3°C
Wind Chill: 32°F , 0°C
Dew Point: 19°F , -7°C
Humidity: 48%
Barometer: 30.06 inHg , 1017.9 hPa
2021/02/25 12:54 K12N 251254Z AUTO 35006G14KT 03/M07 A3006 RMK AO1 SLP185 T00331072
 
KFWN - Sussex, NJ, USA
Distance from station: NW 45mi, 72km
Updated: 02/25/2021 7:53am
Mostly cloudy
Mostly cloudy
 Wind from varies
Wind: varies 7 mph , 11 km/h
Temperature: 39°F , 4°C
Wind Chill: 34°F , 1°C
Dew Point: 19°F , -7°C
Humidity: 45%
Barometer: 30.06 inHg , 1017.9 hPa
Clouds: Mostly cloudy
Visibility: 10 miles , 16 km
Cloud details: Mostly cloudy 4700 ft
2021/02/25 12:53 KFWN 251253Z AUTO VRB06KT 10SM BKN047 04/M07 A3006 RMK AO2 SLP180 T00391067
KISP - Islip, NY, USA
Distance from station: E 49mi, 79km
Updated: 02/25/2021 7:56am
Few Clouds
Few Clouds
 Wind from NW
Wind: NW 17 mph , 28 km/h, Gust: 29 mph , 46 km/h
Temperature: 41°F , 5°C
Wind Chill: 33°F , 1°C
Dew Point: 25°F , -4°C
Humidity: 53%
Barometer: 29.99 inHg , 1015.6 hPa
Clouds: Few Clouds
Visibility: 10 miles , 16 km
Cloud details: Few Clouds 25000 ft
2021/02/25 12:56 KISP 251256Z 31015G25KT 10SM FEW250 05/M04 A2999 RMK AO2 PK WND 32026/1208 SLP157 T00501044